San Carlos de Bariloche, Argentina
Current Conditions -  °F | °C
As of 2:00 PM on Saturday 25 Oct 2014 (Local Time) from SAZS Reporting Station
Clear Clear  
Wind Chill: 72°   Ceiling: Unl
Heat Index: 72°   Visibility: 6mi
Dew Point: 21°   Wind: 21mph
Humidity: 15%   Direction: 290°WNW
Pressure: 29.91"   Gusts: NA
Location:  41.14°S, 71.31°W
Report Text: SAZS 251700Z 29018KT CAVOK 22/M06 Q1013
Loading
Personal Weather Stations






























Interactive Weather Map
Tropical Storm Tracking
New forecast layout! Learn more

10-Day Weather Forecast

Advertisements
Track Severe Weather on mobile